Jaime Montes

Chief Scout - Valladolid
28 Oct 2027
Thursday
Process

Personality

Adaptability (1) Ambition (20) Controversy (9) Loyalty (1) Pressure (15) Professionalism (5) Sportsmanship (2) Temperament (20)

Profile

Coaching Style Democratic
License Continental C
Determination 8
Man Management 13
Motivating 7
Discipline 6
Job Satisfaction
100%
Fatigue
0%
Role Chief Scout
Wage 97.7K p/w
Contract 14.03.2028

Performance

Behaviour Good
Training Effectiveness
46%
Player Development
40%
Injury Prevention
50%
Tactical Implementation
60%

Recent Events

Assessed a player now
Attended a recruitment meeting now
Attended a recruitment meeting now
Recommended a transfer target now
Assessed a player 7d ago
Observed a match 7d ago
Assessed a player 7d ago
Assessed a player 7d ago

Currently Monitoring

187
Player Club Status Ability Confidence Watched Last Observed Latest Vote
Agustín Obregón River Plate Active 105 / 111 40% 2 27.10.2027 -
Giovanni Leoni Bradford City Active 144 / 142 40% 1 27.10.2027 -
Camilo Rey Domenech Boca Juniors Active 123 / 127 40% 2 25.10.2027 -
Juan Morán Godoy Cruz Active 98 / 110 40% 2 25.10.2027 -
Axel Tape Bayer Leverkusen Active 135 / 132 40% 3 25.10.2027 -
Luis Otávio Colorado Rapids Active 99 / 127 40% 3 24.10.2027 -
Tyson Pearce St. Louis CITY SC Active 103 / 98 40% 1 24.10.2027 -
Sebastián Ramírez Jaguares Active 113 / 118 40% 5 23.10.2027 -
Diego Vargas San Marcos de Arica Active 95 / 94 40% 1 23.10.2027 -
Mads Bomholt Stabaek Active 104 / 107 40% 1 21.10.2027 -
Marvelous Freedom Ikorodu City Active 82 / 94 40% 3 20.10.2027 -
Ricky Atletico Venezuela Active 106 / 105 40% 1 18.10.2027 -
Felipe Obradovich Ferro Carril Oeste Active 117 / 124 40% 1 18.10.2027 -
Esteban de Lima Tacuarembo Active 86 / 91 40% 3 17.10.2027 -
Thiago Helguera Braga Active 119 / 125 40% 1 15.10.2027 -
Olaniyi Saheed Kwara United Active 92 / 106 40% 2 13.10.2027 -
Gift Udoh Ikorodu City Active 99 / 92 40% 1 13.10.2027 -
Pablo Aguiar Independiente Active 105 / 104 40% 1 10.10.2027 -
David Valencia Alianza Petrolera Active 135 / 124 40% 2 07.10.2027 -
Joel Ezra Enyimba Active 83 / 98 40% 1 05.10.2027 -
Santiago Espíndola River Plate Active 115 / 127 40% 1 04.10.2027 -
Ayden Heaven Luton Town Active 150 / 149 40% 1 04.10.2027 -
Alejandro Almaraz Nueva Chicago Active 118 / 111 40% 2 07.09.2027 -
Ignacio Fernández Boston River Active 83 / 97 40% 1 07.09.2027 -
Hosea Michael Remo Stars Active 78 / 103 40% 1 30.08.2027 -
Mbekezeli Mbokazi Chicago Fire Active 129 / 138 40% 2 23.08.2027 -
Felipe Faúndez O'Higgins Active 91 / 115 40% 1 23.08.2027 -
Juan Giménez Celta Active 126 / 127 40% 2 16.08.2027 -
Issa Yusuf Shooting Stars Active 91 / 96 40% 1 16.08.2027 -
Izan Merino Málaga Active 127 / 123 40% 2 03.08.2027 -
Sascha Britschgi Padova Active 116 / 132 40% 1 03.08.2027 -
Simón Pinto Palestino Active 90 / 102 40% 1 26.07.2027 -
Dylan Lawlor Cardiff City Active 125 / 125 40% 1 26.07.2027 -
Gonçalo Oliveira Benfica Active 113 / 118 40% 1 26.07.2027 -
Jan Bürger Gillingham Active 111 / 128 40% 2 19.07.2027 -
Kazunari Kita Real Sociedad Active 94 / 102 40% 1 19.07.2027 -
Marc Cardona Andorra Lost 117 / 113 72% 1 05.07.2027 -
Juan Diego Perdomo Depor Active 77 / 94 40% 1 22.06.2027 -
Christos Mouzakitis Hull City Active 130 / 134 40% 1 22.06.2027 -
Sampson Dweh Anderlecht Negotiating 133 / 134 66% 1 01.06.2027 -
Jon Garro Real Sociedad Active 86 / 92 40% 2 31.05.2027 -
Davide Bartesaghi AC Milan Active 139 / 141 40% 1 31.05.2027 -
Omar El Hilali Espanyol Active 156 / 142 40% 8 29.05.2027 -
Welington Southampton Active 136 / 132 40% 8 28.05.2027 -
Pablo Ramón Racing Santander Active 138 / 132 40% 1 28.05.2027 -
Moussa Diakité Cádiz Active 121 / 124 40% 1 28.05.2027 -
Adrià Altimira Deportivo La Coruña Active 128 / 124 40% 6 27.05.2027 -
Bojan Kovačević Cádiz Active 125 / 136 40% 1 27.05.2027 -
Adam Randell Bristol City Active 130 / 132 40% 1 27.05.2027 -
Marvin Park Las Palmas Active 134 / 120 40% 3 26.05.2027 -
Nathan Collins Brentford Active 150 / 143 40% 2 26.05.2027 -
Toby Collyer West Bromwich Albion Active 131 / 138 40% 2 25.05.2027 -
Jesús Vázquez Valencia Active 132 / 144 40% 2 25.05.2027 -
Juan Mosquera Sheffield Wednesday Active 130 / 129 40% 1 24.05.2027 -
Adrien Truffert Bournemouth Active 155 / 153 40% 1 24.05.2027 -
Yehor Yarmoliuk Brentford Active 155 / 148 40% 4 23.05.2027 -
Ilaix Moriba Celta Active 154 / 153 40% 6 23.05.2027 -
Bosun Lawal Stoke City Active 135 / 130 40% 2 23.05.2027 -
Matvii Ponomarenko Dynamo Kyiv Active 108 / 128 40% 1 22.05.2027 -
Jesús Orozco Chiquete Cruz Azul Active 137 / 131 40% 3 21.05.2027 -
Tiziano Dornell Danubio Active 114 / 130 40% 2 20.05.2027 -
Leo Castledine Middlesbrough Active 135 / 132 40% 2 20.05.2027 -
Adama Goïta Remo Stars Active 93 / 93 40% 1 20.05.2027 -
Ousmane Diomande Nottingham Forest Active 151 / 161 40% 1 18.05.2027 -
Derry Murkin Derby County Active 120 / 133 40% 2 17.05.2027 -
Ryan Sessegnon Fulham Active 148 / 147 40% 3 17.05.2027 -
Kevin Vazquez Cruz Azul Active 125 / 144 40% 7 15.05.2027 -
Rayan Bournemouth Active 133 / 140 40% 5 14.05.2027 -
Jacques Ekomié Wrexham Active 125 / 136 40% 1 14.05.2027 -
Dilan Godoy Vélez Active 103 / 122 40% 1 14.05.2027 -
Nordan Mukiele Stade Rennais Active 102 / 98 40% 1 13.05.2027 -
Christ Inao Oulaï Fiorentina Active 136 / 135 40% 2 11.05.2027 -
Alejandro Francés Girona Active 133 / 129 40% 3 11.05.2027 -
Jofre Torrents Ajax Active 124 / 123 40% 1 11.05.2027 -
Urko González Espanyol Active 147 / 139 40% 2 09.05.2027 -
Yusi Alavés Active 124 / 137 40% 4 08.05.2027 -
Pol Lozano Espanyol Active 149 / 134 40% 7 08.05.2027 -
Iwan Morgan Grimsby Town Active 103 / 118 40% 3 08.05.2027 -
Fran García Betis Active 148 / 151 40% 5 05.05.2027 -
Óscar Mingueza Crystal Palace Active 151 / 156 40% 3 04.05.2027 -
Víctor Chust Elche Active 133 / 134 40% 2 04.05.2027 -
Darlin Yongwa Norwich City Active 123 / 129 40% 1 04.05.2027 -
Guille Rosas Gijón Active 147 / 144 40% 2 03.05.2027 Needs More Info
Mathis Jangeal Famalicao Active 96 / 105 40% 3 02.05.2027 -
Víctor Guzmán Sporting CP Active 98 / 96 40% 1 02.05.2027 -
Luke Baartman ES Mostaganem Active 118 / 121 40% 1 01.05.2027 -
Juanlu Bournemouth Active 141 / 154 40% 1 29.04.2027 -
Flavien-Enzo Boyomo Osasuna Active 152 / 156 40% 1 29.04.2027 -
Sayed Abu Farchi Maccabi Tel Aviv Active 110 / 119 40% 1 29.04.2027 -
Daijiro Chirino Almería Active 141 / 140 40% 2 27.04.2027 -
Warren Zaïre-Emery Paris Saint-Germain Active 162 / 160 40% 3 26.04.2027 -
Lucas Høgsberg RC Strasbourg Active 130 / 140 40% 1 26.04.2027 -
Max Bird Birmingham Active 139 / 130 40% 6 23.04.2027 -
Sidiki Chérif Coventry City Active 124 / 138 40% 2 21.04.2027 -
Jonás Luna Santa Clara Active 119 / 124 40% 1 21.04.2027 -
Antonio Blanco Alavés Active 137 / 141 40% 1 20.04.2027 -
Harry Clarke Preston Active 130 / 126 40% 1 19.04.2027 -
Thomas Waddingham Portsmouth Active 101 / 118 40% 1 16.04.2027 -
Rodrigo Villalba River Plate Active 86 / 106 40% 1 15.04.2027 -
Fletcher Holman Swindon Town Active 78 / 87 40% 2 12.04.2027 -
Richard Ledezma Guadalajara Active 136 / 128 40% 2 11.04.2027 -
Josh King Chelsea Active 129 / 143 40% 1 07.04.2027 -
Ethan Galbraith Swansea City Active 133 / 129 40% 3 05.04.2027 -
Imrân Louza Watford Active 136 / 131 40% 1 05.04.2027 -
Daniel Vernattus Metalist Active 89 / 91 40% 1 05.04.2027 -
Percy Jali Free State Stars Active 99 / 107 40% 1 05.04.2027 -
Víctor Guzmán Monterrey Active 146 / 133 40% 1 03.04.2027 -
Alessandro Buongiorno Sassuolo Active 150 / 156 40% 1 02.04.2027 -
Baba N'Diaye Chelyabinsk Active 69 / 87 40% 1 30.03.2027 -
Senny Mayulu Paris Saint-Germain Active 143 / 149 40% 1 30.03.2027 -
Shea Charles Southampton Active 142 / 131 40% 3 26.03.2027 -
Omar Campos Cruz Azul Active 113 / 120 40% 3 25.03.2027 -
Javi Rodríguez Celta Active 154 / 148 40% 4 22.03.2027 -
Ramón Juárez Club America Active 140 / 140 40% 5 14.03.2027 -
Lwanda Mbanjwa Maritzburg United Active 90 / 96 40% 1 12.03.2027 -
Mateus Mané Manchester United Active 131 / 143 40% 1 11.03.2027 -
Agustín Fernández NK Zavrc Active 103 / 101 40% 1 11.03.2027 -
Amaury Morales Pumas UNAM Active 126 / 125 40% 1 09.03.2027 -
Rocco Vata Watford Active 115 / 120 40% 1 09.03.2027 -
Nicolás Fernández Mercau Shakhtar Active 153 / 139 67% 3 05.03.2027 Approve
Stanislav Agkatsev Sunderland Negotiating 132 / 133 66% 1 01.01.2027 -
Marcel Ruiz RC Lens Active 140 / 141 66% 1 01.01.2027 Approve
Kota Tawaratsumida River Plate Negotiating 133 / 136 66% 1 01.01.2027 -
Toni Fruk KV Mechelen Negotiating 132 / 133 89% 1 01.01.2027 -
Ez Abde Girona Active 151 / 153 40% 1 01.01.2027 -
Urko Izeta Cádiz Active 140 / 123 40% 1 31.12.2026 -
Adnan Courtois KV Oostende Active 142 / 132 40% 2 29.12.2026 -
Deniz Ertaş Konyaspor Active 117 / 133 40% 2 29.12.2026 -
Íker Blanco Independiente Medellin Active 102 / 99 40% 1 29.12.2026 -
Razvan Balasa Crvena Zvezda Active 146 / 149 40% 1 29.12.2026 -
Sabino González Sarmiento Active 87 / 104 40% 1 27.12.2026 -
Efraín Álvarez Guadalajara Active 130 / 124 40% 1 26.12.2026 -
Nicolás Soto America de Cali Active 82 / 103 40% 1 24.12.2026 -
Agustín Módica Gimnasia y Esgrima Active 127 / 118 40% 2 23.12.2026 -
Tyrese Campbell Sheffield United Active 134 / 122 40% 1 23.12.2026 -
Thiago Brentford Active 142 / 147 40% 1 22.12.2026 -
Elis Bishesari IFK Goteborg Active 127 / 119 40% 1 16.12.2026 -
Yousef Salech Cardiff City Active 131 / 119 40% 1 15.12.2026 -
Fabricio Díaz San Lorenzo Active 86 / 105 40% 2 12.12.2026 -
Alfonso Álvarez Ferro Carril Oeste Active 79 / 105 40% 1 12.12.2026 -
Adrián Alcaraz Pachuca Active 100 / 104 40% 1 12.12.2026 -
Renato Ardissono San Lorenzo Active 85 / 99 40% 1 07.12.2026 -
Juan González Atlético Tucumán Active 75 / 88 40% 1 05.12.2026 -
Williams Mothiba Black Aces Active 102 / 95 40% 2 04.12.2026 -
Thiago Perruisset Boca Juniors Active 95 / 102 40% 1 04.12.2026 -
Luis Montilla San Telmo Active 80 / 104 40% 1 02.12.2026 -
Manuel Ospina Cortulua Active 121 / 126 40% 1 01.12.2026 -
Gift Hlatshwayo Free State Stars Active 95 / 104 40% 4 29.11.2026 -
Diego Lainez Tigres Active 139 / 123 40% 2 29.11.2026 -
Tommaso Orsini Sambenedettese Active 85 / 96 40% 1 29.11.2026 -
Aimar Osasuna Active 152 / 152 40% 1 25.11.2026 -
Walter Molina Defensa y Justicia Active 83 / 94 40% 1 22.11.2026 -
Nicolás Castro Toluca Active 124 / 127 40% 1 21.11.2026 -
Tomás González Piast Active 130 / 110 40% 1 20.11.2026 -
Duk Atlas Active 118 / 123 40% 3 17.11.2026 -
Juan Diego Arboleda Leones Active 72 / 90 40% 1 15.11.2026 -
Tani Oluwaseyi Villarreal Active 144 / 144 40% 1 13.11.2026 -
Guillaume Restes Toulouse FC Active 137 / 132 40% 1 09.11.2026 -
Federico Bonilla Nacional Active 81 / 99 40% 1 08.11.2026 -
Juan Manuel Centurión Independiente Active 105 / 99 40% 1 07.11.2026 -
Juan Ignacio Berasi Colón Active 100 / 99 40% 1 05.11.2026 -
Lautaro Vera Platense Active 90 / 99 40% 1 03.11.2026 -
Ramiro Ruiz Rodríguez Atlético Tucumán Active 116 / 118 40% 1 02.11.2026 -
Rodrigo Parra Guadalajara Active 89 / 104 40% 1 31.10.2026 -
Jeremías Robledo Acosta Newell's Old Boys Active 69 / 101 40% 1 29.10.2026 -
David Cordova Atletico Venezuela Active 80 / 92 40% 1 24.10.2026 -
Juan Pablo Insúa Barracas Central Active 89 / 100 40% 1 23.10.2026 -
Santino Gianoli Almirante Brown Active 86 / 89 40% 1 23.10.2026 -
Mateo Mendoza Godoy Cruz Active 120 / 133 40% 3 19.10.2026 -
Lautaro Herrera Estudiantes Active 93 / 112 40% 1 19.10.2026 -
Mateo Raschia Unión de Santa Fe Active 102 / 88 40% 1 19.10.2026 -
Noah Sadiki Sunderland Active 134 / 141 40% 1 16.10.2026 -
Hervin Goyes Deportivo Pasto Active 107 / 107 40% 1 14.10.2026 -
Lucas Agazzi Defensor Sporting Active 130 / 125 40% 1 13.10.2026 -
El Hadji Malick Diouf Brentford Active 127 / 137 40% 1 11.10.2026 -
Alexandro Maidana Talleres Active 102 / 108 40% 1 09.10.2026 -
José Pachuca Puebla Active 112 / 108 40% 2 07.10.2026 -
Ignacio Perruzzi San Lorenzo Active 122 / 124 40% 1 07.10.2026 -
Santiago Fernández Talleres Active 121 / 133 40% 2 06.10.2026 -
Axel Frugone Defensor Sporting Active 105 / 113 40% 1 06.10.2026 -
Mandla Erasmus SuperSport United Active 107 / 127 40% 1 21.09.2026 -
Nahuel Arias San Lorenzo Active 125 / 112 40% 1 20.09.2026 -
Thiago Acosta River Plate Active 106 / 104 40% 1 17.09.2026 -
Leny Yoro Manchester United Active 132 / 151 40% 1 15.09.2026 -
Jack Hinshelwood Brighton Active 134 / 150 40% 1 31.08.2026 -
Ignacio Campo Huracán Active 105 / 113 40% 1 18.08.2026 -
Rico Lewis Manchester City Active 149 / 144 40% 1 02.08.2026 -